Archival Weather

Bridgeport/Sikorsky

Bridgeport, Connecticut (KBDR)

Report from: Friday, February 23, 2024 3:52 AM EST
Current time: Wednesday, May 29, 2024 8:46 PM EDT

Current weather – Weather history – Daily summaries
Weather forecast

Present weatherLight rain
Temperature4.4°C (39.9°F)
Wind chill1.4°C (34.5°F)
Dew point3.3°C (37.9°F)
Winds 7 kts (3.6 m/s, 8.1 mph) East-Northeast (60°)
Visibility10 mi. (16.1 km)
Clouds Few clouds 6,000 ft. (1,829 m)
Scattered clouds 7,500 ft. (2,286 m)
Ceiling: Overcast 10,000 ft. (3,048 m)
Altimeter29.58 in.Hg (1002 mB)
PrecipitiationTrace
Precip last 3 hours0.06 in. (2 mm)
Relative humidity93 %
Density altitude-774 ft. (-236 m)
Sea-level pressure100.2 kPa (1002 mB, 29.58 in.Hg)
Remarks Fully automated report
Automated weather observing station with precipitation discriminator
Pressure falling more slowly
Flight conditions Visual Meteorological Conditions
Raw dataKBDR 230852Z AUTO 06007KT 10SM -RA FEW060 SCT075 OVC100 04/03 A2958 RMK AO2 SLP017 P0000 60006 T00440033 56036
An error has occurred. This application may no longer respond until reloaded. Reload 🗙